sensor_id;sensor_type;location;lat;lon;timestamp;P1;durP1;ratioP1;P2;durP2;ratioP2
41059;SDS011;26811;53.160;8.202;2023-04-24T00:02:47;7.53;;;5.93;;
41059;SDS011;26811;53.160;8.202;2023-04-24T00:07:48;6.90;;;6.07;;
41059;SDS011;26811;53.160;8.202;2023-04-24T00:12:48;7.50;;;6.38;;
41059;SDS011;26811;53.160;8.202;2023-04-24T00:17:49;7.05;;;5.28;;
41059;SDS011;26811;53.160;8.202;2023-04-24T00:22:49;4.93;;;4.38;;
41059;SDS011;26811;53.160;8.202;2023-04-24T00:27:50;3.65;;;3.10;;
41059;SDS011;26811;53.160;8.202;2023-04-24T00:32:50;3.65;;;2.53;;
41059;SDS011;26811;53.160;8.202;2023-04-24T00:37:51;2.78;;;2.58;;
41059;SDS011;26811;53.160;8.202;2023-04-24T00:42:52;2.50;;;2.30;;
41059;SDS011;26811;53.160;8.202;2023-04-24T00:47:52;2.53;;;2.30;;
41059;SDS011;26811;53.160;8.202;2023-04-24T00:52:53;3.55;;;2.50;;
41059;SDS011;26811;53.160;8.202;2023-04-24T00:57:54;3.15;;;2.53;;
41059;SDS011;26811;53.160;8.202;2023-04-24T01:02:55;3.17;;;2.97;;
41059;SDS011;26811;53.160;8.202;2023-04-24T01:07:57;4.03;;;3.57;;
41059;SDS011;26811;53.160;8.202;2023-04-24T01:12:59;4.25;;;3.58;;
41059;SDS011;26811;53.160;8.202;2023-04-24T01:18:00;4.30;;;4.00;;
41059;SDS011;26811;53.160;8.202;2023-04-24T01:23:00;5.70;;;4.18;;
41059;SDS011;26811;53.160;8.202;2023-04-24T01:28:01;4.78;;;3.85;;
41059;SDS011;26811;53.160;8.202;2023-04-24T01:33:01;4.10;;;3.80;;
41059;SDS011;26811;53.160;8.202;2023-04-24T01:38:02;4.18;;;3.88;;
41059;SDS011;26811;53.160;8.202;2023-04-24T01:43:04;3.88;;;3.58;;
41059;SDS011;26811;53.160;8.202;2023-04-24T01:48:05;4.50;;;4.18;;
41059;SDS011;26811;53.160;8.202;2023-04-24T01:53:06;4.50;;;4.05;;
41059;SDS011;26811;53.160;8.202;2023-04-24T01:58:06;4.65;;;4.25;;
41059;SDS011;26811;53.160;8.202;2023-04-24T02:03:07;5.00;;;4.55;;
41059;SDS011;26811;53.160;8.202;2023-04-24T02:08:07;6.00;;;5.32;;
41059;SDS011;26811;53.160;8.202;2023-04-24T02:13:08;8.43;;;5.18;;
41059;SDS011;26811;53.160;8.202;2023-04-24T02:18:09;5.72;;;5.13;;
41059;SDS011;26811;53.160;8.202;2023-04-24T02:23:10;6.95;;;6.35;;
41059;SDS011;26811;53.160;8.202;2023-04-24T02:28:10;7.03;;;6.30;;
41059;SDS011;26811;53.160;8.202;2023-04-24T02:33:11;6.75;;;6.15;;
41059;SDS011;26811;53.160;8.202;2023-04-24T02:38:12;7.65;;;6.35;;
41059;SDS011;26811;53.160;8.202;2023-04-24T02:43:12;7.93;;;5.78;;
41059;SDS011;26811;53.160;8.202;2023-04-24T02:48:13;6.28;;;5.63;;
41059;SDS011;26811;53.160;8.202;2023-04-24T02:53:13;7.07;;;5.78;;
41059;SDS011;26811;53.160;8.202;2023-04-24T02:58:14;8.55;;;6.65;;
41059;SDS011;26811;53.160;8.202;2023-04-24T03:03:15;7.65;;;6.18;;
41059;SDS011;26811;53.160;8.202;2023-04-24T03:08:16;9.20;;;6.63;;
41059;SDS011;26811;53.160;8.202;2023-04-24T03:13:16;9.73;;;7.13;;
41059;SDS011;26811;53.160;8.202;2023-04-24T03:18:17;7.63;;;6.35;;
41059;SDS011;26811;53.160;8.202;2023-04-24T03:23:17;8.32;;;6.32;;
41059;SDS011;26811;53.160;8.202;2023-04-24T03:28:18;8.13;;;6.40;;
41059;SDS011;26811;53.160;8.202;2023-04-24T03:33:19;8.63;;;6.70;;
41059;SDS011;26811;53.160;8.202;2023-04-24T03:38:20;7.68;;;6.10;;
41059;SDS011;26811;53.160;8.202;2023-04-24T03:43:20;9.55;;;7.40;;
41059;SDS011;26811;53.160;8.202;2023-04-24T03:48:21;7.55;;;6.18;;
41059;SDS011;26811;53.160;8.202;2023-04-24T03:53:21;7.82;;;6.20;;
41059;SDS011;26811;53.160;8.202;2023-04-24T03:58:22;10.80;;;6.93;;
41059;SDS011;26811;53.160;8.202;2023-04-24T04:03:22;8.00;;;6.05;;
41059;SDS011;26811;53.160;8.202;2023-04-24T04:08:23;9.20;;;6.47;;
41059;SDS011;26811;53.160;8.202;2023-04-24T04:13:23;7.85;;;5.95;;
41059;SDS011;26811;53.160;8.202;2023-04-24T04:18:24;6.65;;;5.60;;
41059;SDS011;26811;53.160;8.202;2023-04-24T04:23:24;6.93;;;5.80;;
41059;SDS011;26811;53.160;8.202;2023-04-24T04:28:25;7.60;;;6.20;;
41059;SDS011;26811;53.160;8.202;2023-04-24T04:33:26;9.13;;;6.57;;
41059;SDS011;26811;53.160;8.202;2023-04-24T04:38:27;8.63;;;6.68;;
41059;SDS011;26811;53.160;8.202;2023-04-24T04:43:29;9.68;;;7.05;;
41059;SDS011;26811;53.160;8.202;2023-04-24T04:48:30;9.15;;;7.10;;
41059;SDS011;26811;53.160;8.202;2023-04-24T04:53:31;10.90;;;7.20;;
41059;SDS011;26811;53.160;8.202;2023-04-24T04:58:31;7.85;;;6.78;;
41059;SDS011;26811;53.160;8.202;2023-04-24T05:03:32;9.82;;;7.55;;
41059;SDS011;26811;53.160;8.202;2023-04-24T05:08:32;11.40;;;8.25;;
41059;SDS011;26811;53.160;8.202;2023-04-24T05:13:33;9.90;;;7.85;;
41059;SDS011;26811;53.160;8.202;2023-04-24T05:18:34;10.43;;;8.00;;
41059;SDS011;26811;53.160;8.202;2023-04-24T05:23:34;11.23;;;7.65;;
41059;SDS011;26811;53.160;8.202;2023-04-24T05:28:35;9.75;;;7.88;;
41059;SDS011;26811;53.160;8.202;2023-04-24T05:33:36;11.13;;;8.02;;
41059;SDS011;26811;53.160;8.202;2023-04-24T05:38:37;12.73;;;8.50;;
41059;SDS011;26811;53.160;8.202;2023-04-24T05:43:37;13.35;;;8.45;;
41059;SDS011;26811;53.160;8.202;2023-04-24T05:48:38;10.98;;;7.80;;
41059;SDS011;26811;53.160;8.202;2023-04-24T05:53:38;11.43;;;8.27;;
41059;SDS011;26811;53.160;8.202;2023-04-24T05:58:39;12.05;;;7.65;;
41059;SDS011;26811;53.160;8.202;2023-04-24T06:03:40;10.90;;;8.38;;
41059;SDS011;26811;53.160;8.202;2023-04-24T06:08:41;11.27;;;8.10;;
41059;SDS011;26811;53.160;8.202;2023-04-24T06:13:44;10.50;;;7.73;;
41059;SDS011;26811;53.160;8.202;2023-04-24T06:18:44;10.65;;;8.13;;
41059;SDS011;26811;53.160;8.202;2023-04-24T06:23:46;18.30;;;8.15;;
41059;SDS011;26811;53.160;8.202;2023-04-24T06:28:47;11.65;;;8.43;;
41059;SDS011;26811;53.160;8.202;2023-04-24T06:33:48;12.45;;;8.18;;
41059;SDS011;26811;53.160;8.202;2023-04-24T06:38:49;12.77;;;8.57;;
41059;SDS011;26811;53.160;8.202;2023-04-24T06:43:50;12.45;;;8.50;;
41059;SDS011;26811;53.160;8.202;2023-04-24T06:48:50;15.02;;;9.23;;
41059;SDS011;26811;53.160;8.202;2023-04-24T06:53:51;13.45;;;8.82;;
41059;SDS011;26811;53.160;8.202;2023-04-24T06:58:53;14.85;;;8.23;;
41059;SDS011;26811;53.160;8.202;2023-04-24T07:03:53;12.30;;;8.68;;
41059;SDS011;26811;53.160;8.202;2023-04-24T07:08:54;13.38;;;8.73;;
41059;SDS011;26811;53.160;8.202;2023-04-24T07:13:55;11.15;;;8.52;;
41059;SDS011;26811;53.160;8.202;2023-04-24T07:18:56;13.98;;;9.02;;
41059;SDS011;26811;53.160;8.202;2023-04-24T07:23:57;16.17;;;9.90;;
41059;SDS011;26811;53.160;8.202;2023-04-24T07:28:58;13.02;;;9.98;;
41059;SDS011;26811;53.160;8.202;2023-04-24T07:33:58;16.25;;;9.88;;
41059;SDS011;26811;53.160;8.202;2023-04-24T07:38:59;14.98;;;9.95;;
41059;SDS011;26811;53.160;8.202;2023-04-24T07:43:59;13.25;;;10.23;;
41059;SDS011;26811;53.160;8.202;2023-04-24T07:49:00;13.43;;;9.75;;
41059;SDS011;26811;53.160;8.202;2023-04-24T07:54:01;12.52;;;8.57;;
41059;SDS011;26811;53.160;8.202;2023-04-24T07:59:01;13.68;;;9.30;;
41059;SDS011;26811;53.160;8.202;2023-04-24T08:04:02;13.50;;;9.48;;
41059;SDS011;26811;53.160;8.202;2023-04-24T08:09:02;11.02;;;8.80;;
41059;SDS011;26811;53.160;8.202;2023-04-24T08:14:03;11.70;;;8.77;;
41059;SDS011;26811;53.160;8.202;2023-04-24T08:19:04;12.38;;;8.02;;
41059;SDS011;26811;53.160;8.202;2023-04-24T08:24:04;10.18;;;8.05;;
41059;SDS011;26811;53.160;8.202;2023-04-24T08:29:07;12.25;;;8.63;;
41059;SDS011;26811;53.160;8.202;2023-04-24T08:34:09;11.10;;;7.95;;
41059;SDS011;26811;53.160;8.202;2023-04-24T08:39:10;12.18;;;7.53;;
41059;SDS011;26811;53.160;8.202;2023-04-24T08:44:10;8.95;;;6.95;;
41059;SDS011;26811;53.160;8.202;2023-04-24T08:49:15;8.95;;;7.28;;
41059;SDS011;26811;53.160;8.202;2023-04-24T08:54:16;8.23;;;6.20;;
41059;SDS011;26811;53.160;8.202;2023-04-24T08:59:18;9.77;;;6.75;;
41059;SDS011;26811;53.160;8.202;2023-04-24T09:04:19;8.88;;;6.97;;
41059;SDS011;26811;53.160;8.202;2023-04-24T09:09:22;11.33;;;7.03;;
41059;SDS011;26811;53.160;8.202;2023-04-24T09:14:23;7.25;;;5.93;;
41059;SDS011;26811;53.160;8.202;2023-04-24T09:19:24;11.77;;;6.38;;
41059;SDS011;26811;53.160;8.202;2023-04-24T09:24:24;10.85;;;6.65;;
41059;SDS011;26811;53.160;8.202;2023-04-24T09:29:25;9.43;;;6.72;;
41059;SDS011;26811;53.160;8.202;2023-04-24T09:34:26;9.27;;;6.90;;
41059;SDS011;26811;53.160;8.202;2023-04-24T09:39:27;9.93;;;7.22;;
41059;SDS011;26811;53.160;8.202;2023-04-24T09:44:28;12.98;;;7.38;;
41059;SDS011;26811;53.160;8.202;2023-04-24T09:49:29;9.02;;;7.18;;
41059;SDS011;26811;53.160;8.202;2023-04-24T09:54:31;13.07;;;6.97;;
41059;SDS011;26811;53.160;8.202;2023-04-24T09:59:31;11.18;;;7.20;;
41059;SDS011;26811;53.160;8.202;2023-04-24T10:04:32;9.35;;;6.25;;
41059;SDS011;26811;53.160;8.202;2023-04-24T10:09:32;8.07;;;5.93;;
41059;SDS011;26811;53.160;8.202;2023-04-24T10:14:33;5.78;;;5.22;;
41059;SDS011;26811;53.160;8.202;2023-04-24T10:19:34;7.35;;;5.22;;
41059;SDS011;26811;53.160;8.202;2023-04-24T10:24:37;9.23;;;5.37;;
41059;SDS011;26811;53.160;8.202;2023-04-24T10:29:38;6.28;;;4.80;;
41059;SDS011;26811;53.160;8.202;2023-04-24T10:34:40;5.03;;;4.15;;
41059;SDS011;26811;53.160;8.202;2023-04-24T10:39:40;5.65;;;3.72;;
41059;SDS011;26811;53.160;8.202;2023-04-24T10:44:41;3.92;;;3.63;;
41059;SDS011;26811;53.160;8.202;2023-04-24T10:49:41;4.65;;;3.67;;
41059;SDS011;26811;53.160;8.202;2023-04-24T10:54:46;6.80;;;3.58;;
41059;SDS011;26811;53.160;8.202;2023-04-24T10:59:47;7.05;;;3.90;;
41059;SDS011;26811;53.160;8.202;2023-04-24T11:05:08;4.82;;;4.07;;
41059;SDS011;26811;53.160;8.202;2023-04-24T11:10:21;6.20;;;4.70;;
41059;SDS011;26811;53.160;8.202;2023-04-24T11:15:25;6.35;;;3.63;;
41059;SDS011;26811;53.160;8.202;2023-04-24T11:20:26;5.28;;;4.30;;
41059;SDS011;26811;53.160;8.202;2023-04-24T11:25:28;4.95;;;4.10;;
41059;SDS011;26811;53.160;8.202;2023-04-24T11:30:31;6.72;;;4.72;;
41059;SDS011;26811;53.160;8.202;2023-04-24T11:35:39;7.40;;;4.68;;
41059;SDS011;26811;53.160;8.202;2023-04-24T11:40:40;6.35;;;4.55;;
41059;SDS011;26811;53.160;8.202;2023-04-24T11:45:47;5.05;;;3.70;;
41059;SDS011;26811;53.160;8.202;2023-04-24T11:50:48;3.70;;;3.25;;
41059;SDS011;26811;53.160;8.202;2023-04-24T11:55:49;4.75;;;3.03;;
41059;SDS011;26811;53.160;8.202;2023-04-24T12:00:55;8.90;;;5.38;;
41059;SDS011;26811;53.160;8.202;2023-04-24T12:06:10;12.38;;;7.53;;
41059;SDS011;26811;53.160;8.202;2023-04-24T12:11:14;16.88;;;8.75;;
41059;SDS011;26811;53.160;8.202;2023-04-24T12:16:15;17.60;;;11.10;;
41059;SDS011;26811;53.160;8.202;2023-04-24T12:21:20;20.70;;;12.10;;
41059;SDS011;26811;53.160;8.202;2023-04-24T12:26:22;24.08;;;12.30;;
41059;SDS011;26811;53.160;8.202;2023-04-24T12:31:23;20.35;;;11.32;;
41059;SDS011;26811;53.160;8.202;2023-04-24T12:36:23;27.55;;;11.45;;
41059;SDS011;26811;53.160;8.202;2023-04-24T12:41:24;21.48;;;11.05;;
41059;SDS011;26811;53.160;8.202;2023-04-24T12:46:24;20.63;;;10.45;;
41059;SDS011;26811;53.160;8.202;2023-04-24T12:51:25;17.25;;;9.48;;
41059;SDS011;26811;53.160;8.202;2023-04-24T12:56:26;17.58;;;9.35;;
41059;SDS011;26811;53.160;8.202;2023-04-24T13:01:26;16.83;;;8.93;;
41059;SDS011;26811;53.160;8.202;2023-04-24T13:06:27;18.45;;;9.05;;
41059;SDS011;26811;53.160;8.202;2023-04-24T13:11:27;18.75;;;9.07;;
41059;SDS011;26811;53.160;8.202;2023-04-24T13:16:28;23.98;;;9.40;;
41059;SDS011;26811;53.160;8.202;2023-04-24T13:21:29;18.48;;;8.35;;
41059;SDS011;26811;53.160;8.202;2023-04-24T13:26:30;13.75;;;7.13;;
41059;SDS011;26811;53.160;8.202;2023-04-24T13:31:30;18.15;;;7.25;;
41059;SDS011;26811;53.160;8.202;2023-04-24T13:36:31;14.30;;;6.43;;
41059;SDS011;26811;53.160;8.202;2023-04-24T13:41:32;19.02;;;6.75;;
41059;SDS011;26811;53.160;8.202;2023-04-24T13:46:34;15.10;;;6.20;;
41059;SDS011;26811;53.160;8.202;2023-04-24T13:51:35;15.40;;;6.45;;
41059;SDS011;26811;53.160;8.202;2023-04-24T13:56:36;16.15;;;6.80;;
41059;SDS011;26811;53.160;8.202;2023-04-24T14:06:53;14.70;;;6.78;;
41059;SDS011;26811;53.160;8.202;2023-04-24T14:11:56;17.80;;;6.68;;
41059;SDS011;26811;53.160;8.202;2023-04-24T14:17:01;15.15;;;6.93;;
41059;SDS011;26811;53.160;8.202;2023-04-24T14:22:02;10.65;;;6.28;;
41059;SDS011;26811;53.160;8.202;2023-04-24T14:27:11;14.50;;;5.53;;
41059;SDS011;26811;53.160;8.202;2023-04-24T14:32:17;12.25;;;5.65;;
41059;SDS011;26811;53.160;8.202;2023-04-24T14:37:24;14.45;;;5.30;;
41059;SDS011;26811;53.160;8.202;2023-04-24T14:42:25;17.52;;;3.92;;
41059;SDS011;26811;53.160;8.202;2023-04-24T14:47:26;16.55;;;4.30;;
41059;SDS011;26811;53.160;8.202;2023-04-24T14:52:27;6.68;;;3.72;;
41059;SDS011;26811;53.160;8.202;2023-04-24T14:57:27;11.07;;;4.25;;
41059;SDS011;26811;53.160;8.202;2023-04-24T15:02:28;8.68;;;4.22;;
41059;SDS011;26811;53.160;8.202;2023-04-24T15:07:29;9.27;;;4.13;;
41059;SDS011;26811;53.160;8.202;2023-04-24T15:12:30;10.10;;;4.30;;
41059;SDS011;26811;53.160;8.202;2023-04-24T15:17:31;10.00;;;4.22;;
41059;SDS011;26811;53.160;8.202;2023-04-24T15:22:32;14.32;;;4.40;;
41059;SDS011;26811;53.160;8.202;2023-04-24T15:27:39;11.38;;;4.43;;
41059;SDS011;26811;53.160;8.202;2023-04-24T15:32:41;7.95;;;3.88;;
41059;SDS011;26811;53.160;8.202;2023-04-24T15:37:41;7.45;;;3.65;;
41059;SDS011;26811;53.160;8.202;2023-04-24T15:42:42;7.57;;;3.40;;
41059;SDS011;26811;53.160;8.202;2023-04-24T15:47:44;5.22;;;2.97;;
41059;SDS011;26811;53.160;8.202;2023-04-24T15:52:46;5.75;;;3.10;;
41059;SDS011;26811;53.160;8.202;2023-04-24T15:57:46;9.27;;;3.47;;
41059;SDS011;26811;53.160;8.202;2023-04-24T16:02:47;12.02;;;2.88;;
41059;SDS011;26811;53.160;8.202;2023-04-24T16:07:50;5.78;;;3.35;;
41059;SDS011;26811;53.160;8.202;2023-04-24T16:12:50;4.70;;;3.30;;
41059;SDS011;26811;53.160;8.202;2023-04-24T16:17:53;9.37;;;3.30;;
41059;SDS011;26811;53.160;8.202;2023-04-24T16:22:53;7.55;;;3.60;;
41059;SDS011;26811;53.160;8.202;2023-04-24T16:27:54;6.75;;;3.58;;
41059;SDS011;26811;53.160;8.202;2023-04-24T16:32:55;7.35;;;3.72;;
41059;SDS011;26811;53.160;8.202;2023-04-24T16:37:56;8.25;;;4.13;;
41059;SDS011;26811;53.160;8.202;2023-04-24T16:42:57;7.38;;;3.50;;
41059;SDS011;26811;53.160;8.202;2023-04-24T16:47:57;12.27;;;3.55;;
41059;SDS011;26811;53.160;8.202;2023-04-24T16:52:58;6.65;;;3.25;;
41059;SDS011;26811;53.160;8.202;2023-04-24T16:57:58;7.50;;;3.53;;
41059;SDS011;26811;53.160;8.202;2023-04-24T17:03:00;8.07;;;3.80;;
41059;SDS011;26811;53.160;8.202;2023-04-24T17:08:03;9.65;;;3.97;;
41059;SDS011;26811;53.160;8.202;2023-04-24T17:13:04;10.02;;;3.50;;
41059;SDS011;26811;53.160;8.202;2023-04-24T17:18:04;10.07;;;3.65;;
41059;SDS011;26811;53.160;8.202;2023-04-24T17:23:05;12.80;;;4.45;;
41059;SDS011;26811;53.160;8.202;2023-04-24T17:28:13;8.43;;;3.88;;
41059;SDS011;26811;53.160;8.202;2023-04-24T17:33:26;8.48;;;3.72;;
41059;SDS011;26811;53.160;8.202;2023-04-24T17:38:28;11.63;;;4.30;;
41059;SDS011;26811;53.160;8.202;2023-04-24T17:43:29;11.20;;;4.18;;
41059;SDS011;26811;53.160;8.202;2023-04-24T17:48:29;10.20;;;3.90;;
41059;SDS011;26811;53.160;8.202;2023-04-24T17:53:30;14.65;;;4.47;;
41059;SDS011;26811;53.160;8.202;2023-04-24T17:58:30;12.10;;;4.20;;
41059;SDS011;26811;53.160;8.202;2023-04-24T18:03:33;8.07;;;3.72;;
41059;SDS011;26811;53.160;8.202;2023-04-24T18:08:34;9.88;;;4.00;;
41059;SDS011;26811;53.160;8.202;2023-04-24T18:13:35;13.43;;;5.18;;
41059;SDS011;26811;53.160;8.202;2023-04-24T18:18:37;12.90;;;4.97;;
41059;SDS011;26811;53.160;8.202;2023-04-24T18:23:38;10.35;;;5.32;;
41059;SDS011;26811;53.160;8.202;2023-04-24T18:28:38;15.25;;;5.38;;
41059;SDS011;26811;53.160;8.202;2023-04-24T18:33:39;13.23;;;5.05;;
41059;SDS011;26811;53.160;8.202;2023-04-24T18:38:39;12.35;;;5.03;;
41059;SDS011;26811;53.160;8.202;2023-04-24T18:43:40;11.23;;;4.70;;
41059;SDS011;26811;53.160;8.202;2023-04-24T18:48:40;10.77;;;4.47;;
41059;SDS011;26811;53.160;8.202;2023-04-24T18:53:41;14.57;;;4.72;;
41059;SDS011;26811;53.160;8.202;2023-04-24T18:58:41;9.52;;;4.97;;
41059;SDS011;26811;53.160;8.202;2023-04-24T19:03:45;12.77;;;4.57;;
41059;SDS011;26811;53.160;8.202;2023-04-24T19:08:45;12.27;;;4.97;;
41059;SDS011;26811;53.160;8.202;2023-04-24T19:13:46;14.88;;;4.68;;
41059;SDS011;26811;53.160;8.202;2023-04-24T19:18:46;12.45;;;5.18;;
41059;SDS011;26811;53.160;8.202;2023-04-24T19:23:47;14.32;;;5.38;;
41059;SDS011;26811;53.160;8.202;2023-04-24T19:28:49;11.68;;;4.45;;
41059;SDS011;26811;53.160;8.202;2023-04-24T19:33:52;8.85;;;4.68;;
41059;SDS011;26811;53.160;8.202;2023-04-24T19:38:53;15.90;;;4.60;;
41059;SDS011;26811;53.160;8.202;2023-04-24T19:43:54;10.48;;;4.53;;
41059;SDS011;26811;53.160;8.202;2023-04-24T19:48:54;13.30;;;4.43;;
41059;SDS011;26811;53.160;8.202;2023-04-24T19:53:55;8.00;;;4.65;;
41059;SDS011;26811;53.160;8.202;2023-04-24T19:58:56;8.30;;;3.97;;
41059;SDS011;26811;53.160;8.202;2023-04-24T20:03:56;9.50;;;4.07;;
41059;SDS011;26811;53.160;8.202;2023-04-24T20:08:57;6.95;;;4.28;;
41059;SDS011;26811;53.160;8.202;2023-04-24T20:13:57;8.60;;;4.32;;
41059;SDS011;26811;53.160;8.202;2023-04-24T20:19:00;5.93;;;4.07;;
41059;SDS011;26811;53.160;8.202;2023-04-24T20:24:01;8.50;;;4.20;;
41059;SDS011;26811;53.160;8.202;2023-04-24T20:29:02;7.50;;;3.90;;
41059;SDS011;26811;53.160;8.202;2023-04-24T20:34:04;12.00;;;4.20;;
41059;SDS011;26811;53.160;8.202;2023-04-24T20:39:05;13.90;;;4.47;;
41059;SDS011;26811;53.160;8.202;2023-04-24T20:44:07;7.50;;;4.15;;
41059;SDS011;26811;53.160;8.202;2023-04-24T20:49:07;12.52;;;4.60;;
41059;SDS011;26811;53.160;8.202;2023-04-24T20:54:08;8.50;;;4.18;;
41059;SDS011;26811;53.160;8.202;2023-04-24T20:59:08;7.90;;;4.18;;
41059;SDS011;26811;53.160;8.202;2023-04-24T21:04:09;10.85;;;4.47;;
41059;SDS011;26811;53.160;8.202;2023-04-24T21:14:13;13.45;;;5.10;;
41059;SDS011;26811;53.160;8.202;2023-04-24T21:19:13;8.57;;;5.00;;
41059;SDS011;26811;53.160;8.202;2023-04-24T21:24:14;11.82;;;5.38;;
41059;SDS011;26811;53.160;8.202;2023-04-24T21:29:15;8.88;;;5.20;;
41059;SDS011;26811;53.160;8.202;2023-04-24T21:34:15;11.35;;;4.78;;
41059;SDS011;26811;53.160;8.202;2023-04-24T21:39:16;14.90;;;5.28;;
41059;SDS011;26811;53.160;8.202;2023-04-24T21:44:17;8.57;;;5.07;;
41059;SDS011;26811;53.160;8.202;2023-04-24T21:49:17;7.95;;;5.32;;
41059;SDS011;26811;53.160;8.202;2023-04-24T21:54:18;11.00;;;5.43;;
41059;SDS011;26811;53.160;8.202;2023-04-24T21:59:19;14.77;;;5.82;;
41059;SDS011;26811;53.160;8.202;2023-04-24T22:04:20;17.85;;;5.50;;
41059;SDS011;26811;53.160;8.202;2023-04-24T22:09:21;19.33;;;6.00;;
41059;SDS011;26811;53.160;8.202;2023-04-24T22:14:21;19.02;;;5.57;;
41059;SDS011;26811;53.160;8.202;2023-04-24T22:19:22;9.82;;;5.43;;
41059;SDS011;26811;53.160;8.202;2023-04-24T22:24:25;12.93;;;5.97;;
41059;SDS011;26811;53.160;8.202;2023-04-24T22:29:25;11.45;;;5.63;;
41059;SDS011;26811;53.160;8.202;2023-04-24T22:34:26;13.90;;;6.07;;
41059;SDS011;26811;53.160;8.202;2023-04-24T22:39:26;11.38;;;6.05;;
41059;SDS011;26811;53.160;8.202;2023-04-24T22:44:27;11.65;;;6.03;;
41059;SDS011;26811;53.160;8.202;2023-04-24T22:49:27;16.30;;;7.07;;
41059;SDS011;26811;53.160;8.202;2023-04-24T22:54:29;18.45;;;5.95;;
41059;SDS011;26811;53.160;8.202;2023-04-24T22:59:33;19.63;;;5.78;;
41059;SDS011;26811;53.160;8.202;2023-04-24T23:04:34;32.90;;;7.38;;
41059;SDS011;26811;53.160;8.202;2023-04-24T23:09:35;22.75;;;6.30;;
41059;SDS011;26811;53.160;8.202;2023-04-24T23:14:35;24.70;;;5.95;;
41059;SDS011;26811;53.160;8.202;2023-04-24T23:19:36;27.15;;;6.30;;
41059;SDS011;26811;53.160;8.202;2023-04-24T23:24:37;36.15;;;5.60;;
41059;SDS011;26811;53.160;8.202;2023-04-24T23:29:41;27.73;;;6.53;;
41059;SDS011;26811;53.160;8.202;2023-04-24T23:34:41;28.15;;;6.20;;
41059;SDS011;26811;53.160;8.202;2023-04-24T23:39:42;38.25;;;5.80;;
41059;SDS011;26811;53.160;8.202;2023-04-24T23:44:42;33.60;;;5.65;;
41059;SDS011;26811;53.160;8.202;2023-04-24T23:49:43;29.75;;;5.22;;
41059;SDS011;26811;53.160;8.202;2023-04-24T23:54:43;35.78;;;6.50;;
41059;SDS011;26811;53.160;8.202;2023-04-24T23:59:44;33.85;;;5.82;;
